Time;durP1;ratioP1;P1;durP2;ratioP2;P2;SDS_P1;SDS_P2;PMS_P1;PMS_P2;Temp;Humidity;BMP_temperature;BMP_pressure;BME280_temperature;BME280_humidity;BME280_pressure;Samples;Min_cycle;Max_cycle;Signal;HPM_P1;HPM_P2
2020/12/29 00:00:12;;;;;;;2.35;0.80;;;;;;;13.77;41.35;92599.84;4941965;28;20051;-74
2020/12/29 00:02:38;;;;;;;1.00;0.90;;;;;;;13.96;41.24;92599.22;4956014;28;20050;-75
2020/12/29 00:05:03;;;;;;;1.08;0.98;;;;;;;14.02;41.22;92600.53;4956405;28;20479;-75
2020/12/29 00:07:29;;;;;;;1.75;1.00;;;;;;;13.95;40.81;92597.66;4957887;28;20034;-76
2020/12/29 00:09:55;;;;;;;3.25;1.40;;;;;;;13.91;41.71;92620.69;4956962;28;20030;-75
2020/12/29 00:12:20;;;;;;;3.22;1.60;;;;;;;13.85;41.85;92662.63;4952680;28;20758;-75
2020/12/29 00:14:46;;;;;;;1.70;1.00;;;;;;;13.87;41.55;92683.56;4959486;28;20039;-75
2020/12/29 00:17:11;;;;;;;1.70;0.95;;;;;;;13.79;41.38;92679.13;4953986;28;20369;-75
2020/12/29 00:19:37;;;;;;;3.13;1.05;;;;;;;13.81;41.83;92700.81;4961804;28;20030;-74
2020/12/29 00:22:03;;;;;;;0.93;0.93;;;;;;;13.83;41.98;92701.25;4954573;28;20053;-75
2020/12/29 00:24:28;;;;;;;0.82;0.80;;;;;;;13.78;42.08;92725.41;4955772;28;20046;-74
2020/12/29 00:26:54;;;;;;;1.63;0.80;;;;;;;13.58;42.75;92700.53;4955827;28;20039;-74
2020/12/29 00:29:19;;;;;;;0.77;0.77;;;;;;;13.75;42.56;92732.13;4941404;28;20097;-74
2020/12/29 00:31:45;;;;;;;1.00;0.90;;;;;;;13.92;42.33;92735.66;4954108;28;20022;-74
2020/12/29 00:34:10;;;;;;;0.68;0.68;;;;;;;13.91;41.98;92723.50;4959211;28;20740;-74
2020/12/29 00:36:36;;;;;;;0.90;0.70;;;;;;;13.89;42.31;92726.47;4955397;28;20034;-73
2020/12/29 00:39:03;;;;;;;0.77;0.77;;;;;;;13.94;42.34;92701.56;4959636;28;20081;-75
2020/12/29 00:41:28;;;;;;;1.13;0.80;;;;;;;13.99;42.72;92704.75;4953117;28;20042;-74
2020/12/29 00:43:54;;;;;;;1.60;0.90;;;;;;;13.96;42.54;92657.63;4956120;28;20384;-76
2020/12/29 00:46:21;;;;;;;1.15;0.80;;;;;;;13.86;43.12;92674.03;4938103;28;20026;-74
2020/12/29 00:48:48;;;;;;;1.73;0.80;;;;;;;13.86;43.34;92674.81;4958619;28;20043;-74
2020/12/29 00:51:19;;;;;;;4.68;1.13;;;;;;;13.78;43.29;92667.72;4952278;28;20463;-74
2020/12/29 00:53:45;;;;;;;1.13;0.80;;;;;;;13.73;43.73;92675.94;4941972;28;20038;-75
2020/12/29 00:56:10;;;;;;;1.88;0.80;;;;;;;13.71;43.77;92621.63;4956734;28;20155;-75
2020/12/29 00:58:37;;;;;;;4.32;0.80;;;;;;;13.74;43.94;92623.59;4960199;28;20022;-75
2020/12/29 01:01:04;;;;;;;14.70;1.35;;;;;;;13.50;43.67;92613.03;4957072;28;20040;-75
2020/12/29 01:03:29;;;;;;;4.65;1.00;;;;;;;13.62;44.04;92573.22;4956020;28;20737;-74
2020/12/29 01:05:55;;;;;;;4.50;0.68;;;;;;;13.54;43.81;92544.91;4955205;28;20047;-74
2020/12/29 01:08:21;;;;;;;0.80;0.80;;;;;;;13.56;44.14;92553.31;4959197;28;20468;-76
2020/12/29 01:10:54;;;;;;;2.17;0.80;;;;;;;13.49;43.92;92569.06;4956488;28;20110;-73
2020/12/29 01:13:20;;;;;;;2.88;0.82;;;;;;;13.41;44.26;92533.56;4957285;28;20019;-74
2020/12/29 01:15:47;;;;;;;3.00;0.80;;;;;;;13.30;44.51;92535.91;4958059;28;20053;-74
2020/12/29 01:18:13;;;;;;;0.77;0.70;;;;;;;13.40;43.97;92524.84;4956123;28;20610;-75
2020/12/29 01:20:38;;;;;;;2.50;0.70;;;;;;;13.33;44.20;92507.94;4955569;28;20049;-74
2020/12/29 01:23:04;;;;;;;1.10;0.80;;;;;;;13.28;44.38;92503.66;4954419;28;20125;-75
2020/12/29 01:25:30;;;;;;;1.38;0.80;;;;;;;13.27;44.38;92483.53;4958360;28;20026;-74
2020/12/29 01:27:55;;;;;;;2.15;1.50;;;;;;;13.36;43.86;92489.47;4957678;28;20054;-74
2020/12/29 01:30:21;;;;;;;4.38;0.73;;;;;;;13.32;43.92;92490.47;4955605;28;20042;-76
2020/12/29 01:32:46;;;;;;;1.90;0.70;;;;;;;13.39;43.98;92523.28;4937998;28;20042;-74
2020/12/29 01:35:12;;;;;;;3.90;1.67;;;;;;;13.38;43.33;92505.84;4955335;28;20051;-74
2020/12/29 01:37:42;;;;;;;1.25;0.77;;;;;;;13.49;43.36;92535.31;4962923;28;20023;-74
2020/12/29 01:40:09;;;;;;;0.75;0.75;;;;;;;13.40;43.28;92514.22;4954177;28;20073;-75
2020/12/29 01:42:34;;;;;;;0.85;0.77;;;;;;;13.49;43.56;92579.66;4956757;28;20047;-77
2020/12/29 01:45:00;;;;;;;7.25;0.77;;;;;;;13.57;43.12;92570.78;4955587;28;20039;-77
2020/12/29 01:47:26;;;;;;;4.63;0.90;;;;;;;13.64;43.33;92597.53;4940542;28;20066;-75
2020/12/29 01:49:53;;;;;;;1.00;0.60;;;;;;;13.63;43.13;92593.34;4954105;28;20081;-74
2020/12/29 01:52:18;;;;;;;1.15;0.70;;;;;;;13.48;42.62;92605.44;4958322;28;20388;-74
2020/12/29 01:54:45;;;;;;;4.45;0.88;;;;;;;13.61;42.48;92622.09;4938386;28;20047;-75
2020/12/29 01:57:11;;;;;;;0.60;0.60;;;;;;;13.58;42.24;92589.03;4935305;28;20104;-75
2020/12/29 01:59:37;;;;;;;1.23;0.70;;;;;;;13.72;42.47;92592.09;4953809;28;20118;-74
2020/12/29 02:02:03;;;;;;;3.30;1.00;;;;;;;13.73;42.03;92593.63;4954963;28;20448;-74
2020/12/29 02:04:29;;;;;;;1.38;0.70;;;;;;;13.58;42.11;92567.03;4958019;28;20034;-74
2020/12/29 02:06:55;;;;;;;1.23;0.70;;;;;;;13.64;42.55;92565.66;4954289;28;20550;-74
2020/12/29 02:09:21;;;;;;;6.03;1.00;;;;;;;13.61;42.77;92587.59;4954538;28;20130;-74
2020/12/29 02:11:46;;;;;;;0.70;0.70;;;;;;;13.61;42.79;92588.38;4956140;28;20483;-76
2020/12/29 02:14:12;;;;;;;0.70;0.70;;;;;;;13.66;42.28;92600.63;4936093;28;20035;-75
2020/12/29 02:16:38;;;;;;;2.15;0.80;;;;;;;13.72;42.40;92588.66;4958552;28;20031;-75
2020/12/29 02:19:08;;;;;;;6.55;0.88;;;;;;;13.64;42.46;92560.38;4954978;28;20514;-75
2020/12/29 02:21:34;;;;;;;1.70;0.60;;;;;;;13.57;42.16;92600.00;4954287;28;20042;-75
2020/12/29 02:24:02;;;;;;;1.85;0.80;;;;;;;13.53;42.04;92615.03;4954560;28;20039;-75
2020/12/29 02:26:30;;;;;;;4.90;0.93;;;;;;;13.66;42.63;92584.69;4937398;28;20508;-75
2020/12/29 02:29:04;;;;;;;1.77;0.80;;;;;;;13.47;42.87;92571.25;4952668;28;20053;-75
2020/12/29 02:31:30;;;;;;;1.77;0.77;;;;;;;13.53;43.03;92588.50;4956532;28;20452;-75
2020/12/29 02:33:55;;;;;;;3.10;0.95;;;;;;;13.51;42.95;92550.91;4926158;28;20039;-75
2020/12/29 02:36:24;;;;;;;4.30;0.85;;;;;;;13.38;42.80;92569.53;4944361;28;20835;-75
2020/12/29 02:38:50;;;;;;;2.30;0.70;;;;;;;13.38;42.61;92560.78;4904500;28;20055;-74
2020/12/29 02:41:17;;;;;;;3.30;1.20;;;;;;;13.50;42.91;92599.78;4944845;28;20041;-75
2020/12/29 02:43:46;;;;;;;1.83;0.85;;;;;;;13.53;42.82;92591.16;4953227;28;20033;-75
2020/12/29 02:46:14;;;;;;;1.77;0.80;;;;;;;13.48;42.78;92608.09;4955056;28;20062;-74
2020/12/29 02:48:39;;;;;;;2.50;0.80;;;;;;;13.42;42.60;92601.44;4937264;28;20059;-75
2020/12/29 02:51:05;;;;;;;1.10;0.80;;;;;;;13.51;42.44;92593.34;4953748;28;20051;-75
2020/12/29 02:53:31;;;;;;;1.35;0.80;;;;;;;13.58;42.13;92630.72;4952631;28;20037;-74
2020/12/29 02:55:56;;;;;;;2.25;0.80;;;;;;;13.57;42.02;92635.28;4953643;28;20037;-75
2020/12/29 02:58:21;;;;;;;2.40;0.70;;;;;;;13.43;42.06;92614.41;4954798;28;20049;-76
2020/12/29 03:00:47;;;;;;;1.98;0.80;;;;;;;13.54;42.01;92627.19;4951093;28;20105;-75
2020/12/29 03:03:14;;;;;;;0.73;0.70;;;;;;;13.53;42.09;92613.16;4952094;28;20038;-74
2020/12/29 03:05:40;;;;;;;0.82;0.70;;;;;;;13.50;42.44;92637.69;4939918;28;20043;-75
2020/12/29 03:08:05;;;;;;;2.30;1.10;;;;;;;13.54;42.11;92645.75;4949628;28;20050;-74
2020/12/29 03:10:37;;;;;;;5.68;0.90;;;;;;;13.55;41.57;92648.09;4958708;28;20689;-74
2020/12/29 03:13:03;;;;;;;1.77;0.60;;;;;;;13.51;41.60;92657.81;4955260;28;20491;-75
2020/12/29 03:15:28;;;;;;;1.90;0.70;;;;;;;13.68;41.90;92678.06;4954023;28;20047;-75
2020/12/29 03:17:53;;;;;;;1.25;0.70;;;;;;;13.68;41.21;92678.81;4957361;28;20046;-75
2020/12/29 03:20:19;;;;;;;3.42;0.93;;;;;;;13.74;41.80;92708.56;4952168;28;20149;-74
2020/12/29 03:22:45;;;;;;;6.63;0.90;;;;;;;13.76;41.46;92732.91;4954627;28;20525;-74
2020/12/29 03:25:10;;;;;;;3.10;0.80;;;;;;;13.79;41.22;92734.88;4955715;28;20023;-75
2020/12/29 03:27:36;;;;;;;3.38;0.95;;;;;;;13.77;41.37;92707.91;4953408;28;20035;-75
2020/12/29 03:30:02;;;;;;;1.92;1.63;;;;;;;13.87;41.29;92691.53;4954099;28;20043;-75
2020/12/29 03:32:28;;;;;;;5.60;1.48;;;;;;;13.93;40.78;92716.72;4938472;28;20035;-76
2020/12/29 03:34:53;;;;;;;1.90;0.82;;;;;;;13.82;41.34;92710.34;4951728;28;20396;-74
2020/12/29 03:37:19;;;;;;;0.88;0.70;;;;;;;13.81;41.23;92688.31;4958708;28;20027;-76
2020/12/29 03:39:44;;;;;;;1.52;0.73;;;;;;;13.94;41.07;92667.03;4951575;28;20062;-74
2020/12/29 03:42:10;;;;;;;2.13;0.93;;;;;;;13.82;41.14;92699.72;4955123;28;20451;-75
2020/12/29 03:44:35;;;;;;;4.28;0.80;;;;;;;13.80;40.90;92708.00;4951604;28;20051;-74
2020/12/29 03:47:02;;;;;;;1.05;0.73;;;;;;;13.97;39.97;92722.94;4954570;28;20070;-76
2020/12/29 03:49:28;;;;;;;3.42;0.85;;;;;;;13.99;40.06;92710.06;4954710;28;20491;-75
2020/12/29 03:51:53;;;;;;;1.48;0.70;;;;;;;14.00;39.91;92698.34;4954391;28;20068;-75
2020/12/29 03:54:19;;;;;;;0.60;0.60;;;;;;;14.00;40.03;92701.00;4956324;28;20043;-75
2020/12/29 03:56:44;;;;;;;3.00;0.77;;;;;;;14.11;39.42;92711.94;4957472;28;20043;-75
2020/12/29 03:59:09;;;;;;;3.88;0.70;;;;;;;14.09;38.96;92719.47;4958572;28;21037;-74
2020/12/29 04:01:35;;;;;;;0.85;0.55;;;;;;;14.12;38.85;92706.28;4943826;28;20022;-75
2020/12/29 04:04:01;;;;;;;2.25;0.90;;;;;;;14.20;38.84;92688.66;4955579;28;20140;-75
2020/12/29 04:06:26;;;;;;;2.78;0.68;;;;;;;14.27;39.18;92691.50;4954838;28;20175;-74
2020/12/29 04:08:52;;;;;;;2.47;0.70;;;;;;;14.12;38.50;92700.97;4956479;28;20050;-74
2020/12/29 04:11:17;;;;;;;0.98;0.80;;;;;;;14.22;38.82;92692.53;4954654;28;20683;-74
2020/12/29 04:13:43;;;;;;;5.38;0.90;;;;;;;14.33;38.84;92704.22;4956078;28;20031;-75
2020/12/29 04:16:10;;;;;;;2.75;0.70;;;;;;;14.32;38.42;92708.00;4962755;28;20392;-74
2020/12/29 04:18:36;;;;;;;1.83;0.90;;;;;;;14.41;38.98;92723.84;4941036;28;20053;-74
2020/12/29 04:21:02;;;;;;;1.90;0.93;;;;;;;14.27;38.89;92752.63;4957389;28;20046;-75
2020/12/29 04:23:27;;;;;;;4.78;1.00;;;;;;;14.31;38.48;92727.72;4938536;28;20054;-74
2020/12/29 04:25:53;;;;;;;3.80;0.80;;;;;;;14.17;38.63;92724.63;4956128;28;20019;-74
2020/12/29 04:28:18;;;;;;;0.60;0.60;;;;;;;14.35;38.57;92748.31;4958773;28;20404;-75
2020/12/29 04:30:43;;;;;;;1.33;0.80;;;;;;;14.36;38.89;92736.56;4959965;28;20126;-74
2020/12/29 04:33:09;;;;;;;3.00;0.80;;;;;;;14.34;38.71;92720.94;4954763;28;20077;-75
2020/12/29 04:35:35;;;;;;;0.70;0.70;;;;;;;14.39;38.47;92768.59;4956287;28;20447;-74
2020/12/29 04:38:01;;;;;;;2.20;0.75;;;;;;;14.30;38.52;92736.81;4952469;28;20467;-75
2020/12/29 04:40:32;;;;;;;1.10;1.00;;;;;;;14.37;38.60;92754.84;4964003;28;20027;-74
2020/12/29 04:42:57;;;;;;;1.35;1.15;;;;;;;14.24;38.70;92754.09;4955056;28;20039;-74
2020/12/29 04:45:24;;;;;;;3.30;0.70;;;;;;;14.24;38.91;92756.75;4957086;28;20055;-74
2020/12/29 04:47:51;;;;;;;0.73;0.60;;;;;;;14.26;38.99;92746.56;4957161;28;20062;-74
2020/12/29 04:50:18;;;;;;;1.45;0.73;;;;;;;14.32;39.04;92771.00;4950679;28;21006;-74
2020/12/29 04:52:45;;;;;;;0.85;0.70;;;;;;;14.24;39.15;92770.03;4953802;28;20168;-74
2020/12/29 04:55:11;;;;;;;2.75;0.73;;;;;;;14.21;39.34;92749.44;4959806;28;20027;-74
2020/12/29 04:57:37;;;;;;;1.08;0.60;;;;;;;14.23;39.20;92752.53;4952269;28;20041;-74
2020/12/29 05:00:06;;;;;;;2.90;0.77;;;;;;;14.33;39.13;92733.47;4960401;28;20035;-73
2020/12/29 05:02:32;;;;;;;1.10;0.73;;;;;;;14.37;39.20;92735.50;4954628;28;20050;-74
2020/12/29 05:04:58;;;;;;;1.48;1.00;;;;;;;14.21;39.39;92732.72;4959083;28;20534;-74
2020/12/29 05:07:27;;;;;;;0.98;0.70;;;;;;;14.38;39.41;92752.97;4956143;28;20384;-74
2020/12/29 05:09:53;;;;;;;0.95;0.60;;;;;;;14.43;39.27;92758.03;4957419;28;20035;-74
2020/12/29 05:12:18;;;;;;;0.75;0.73;;;;;;;14.45;39.27;92750.53;4954404;28;20522;-74
2020/12/29 05:14:47;;;;;;;1.85;0.70;;;;;;;14.44;39.12;92763.03;4955900;28;20042;-74
2020/12/29 05:17:15;;;;;;;1.70;0.77;;;;;;;14.40;39.92;92756.06;4954416;28;20047;-75
2020/12/29 05:19:41;;;;;;;1.23;0.60;;;;;;;14.29;39.80;92769.78;4959976;28;20023;-74
2020/12/29 05:22:08;;;;;;;3.47;1.50;;;;;;;14.36;39.87;92768.47;4952015;28;20031;-74
2020/12/29 05:24:34;;;;;;;3.08;0.80;;;;;;;14.28;39.79;92752.28;4956448;28;20507;-75
2020/12/29 05:27:01;;;;;;;1.27;0.65;;;;;;;14.32;39.76;92763.00;4956786;28;20093;-74
2020/12/29 05:29:29;;;;;;;7.70;1.65;;;;;;;14.38;39.91;92766.25;4953600;28;20045;-75
2020/12/29 05:31:55;;;;;;;3.70;1.20;;;;;;;14.36;40.17;92718.78;4953444;28;20054;-74
2020/12/29 05:34:26;;;;;;;0.55;0.55;;;;;;;14.28;40.00;92752.28;4960854;28;20062;-74
2020/12/29 05:36:53;;;;;;;3.38;0.80;;;;;;;14.33;40.03;92740.66;4955828;28;20455;-74
2020/12/29 05:39:21;;;;;;;1.77;0.80;;;;;;;14.24;40.54;92695.63;4955516;28;20458;-74
2020/12/29 05:41:49;;;;;;;1.45;0.60;;;;;;;14.24;40.19;92716.09;4956459;28;20039;-75
2020/12/29 05:44:30;;;;;;;0.70;0.70;;;;;;;14.22;40.56;92723.66;4936968;28;20042;-74
2020/12/29 05:46:58;;;;;;;0.75;0.70;;;;;;;14.18;40.50;92726.19;4955578;28;20117;-74
2020/12/29 05:49:25;;;;;;;0.60;0.60;;;;;;;14.07;40.63;92727.78;4959285;28;20026;-74
2020/12/29 05:51:53;;;;;;;2.70;0.88;;;;;;;14.10;40.91;92716.47;4955683;28;20046;-73
2020/12/29 05:54:20;;;;;;;1.23;0.70;;;;;;;14.09;40.81;92719.47;4954366;28;20041;-75
2020/12/29 05:56:46;;;;;;;0.70;0.70;;;;;;;14.11;40.82;92736.63;4954461;28;20054;-78
2020/12/29 05:59:13;;;;;;;2.83;1.15;;;;;;;14.13;40.75;92742.38;4955242;28;20038;-74
2020/12/29 06:01:40;;;;;;;2.40;0.93;;;;;;;14.20;40.70;92720.56;4958577;28;20027;-74
2020/12/29 06:04:06;;;;;;;1.70;0.73;;;;;;;14.12;41.07;92716.91;4955399;28;20551;-75
2020/12/29 06:06:33;;;;;;;1.67;0.80;;;;;;;14.09;41.48;92709.63;4940909;28;20427;-73
2020/12/29 06:09:04;;;;;;;3.85;1.40;;;;;;;14.06;41.28;92715.59;4955032;28;20479;-74
2020/12/29 06:11:39;;;;;;;6.82;2.15;;;;;;;14.18;40.92;92714.78;4953370;28;20043;-74
2020/12/29 06:14:15;;;;;;;5.88;1.83;;;;;;;14.23;40.75;92728.63;4938749;28;20131;-74
2020/12/29 06:16:43;;;;;;;14.05;5.15;;;;;;;14.18;41.13;92720.09;4954274;28;20019;-74
2020/12/29 06:19:23;;;;;;;7.95;2.97;;;;;;;14.30;41.15;92738.69;4958197;28;22082;-74
2020/12/29 06:22:00;;;;;;;3.53;0.98;;;;;;;14.26;40.87;92756.41;4953672;28;20047;-74
2020/12/29 06:24:28;;;;;;;6.95;2.70;;;;;;;14.32;41.00;92737.22;4954308;28;20038;-74
2020/12/29 06:26:57;;;;;;;3.45;1.00;;;;;;;14.16;41.16;92712.50;4934045;28;20035;-75
2020/12/29 06:29:22;;;;;;;0.85;0.60;;;;;;;14.32;40.87;92741.75;4953756;28;20050;-74
2020/12/29 06:31:51;;;;;;;2.00;0.60;;;;;;;14.31;40.81;92742.88;4955846;28;20490;-74
2020/12/29 06:34:18;;;;;;;1.25;0.80;;;;;;;14.35;41.20;92742.97;4954474;28;20066;-75
2020/12/29 06:36:47;;;;;;;2.45;0.70;;;;;;;14.41;40.88;92754.97;4954882;28;20043;-75
2020/12/29 06:39:13;;;;;;;3.03;1.08;;;;;;;14.45;40.78;92769.13;4953463;28;20046;-74
2020/12/29 06:41:41;;;;;;;1.75;0.70;;;;;;;14.52;40.54;92758.69;4952958;28;20031;-74
2020/12/29 06:44:06;;;;;;;2.05;0.82;;;;;;;14.68;40.73;92786.09;4953232;28;20039;-75
2020/12/29 06:46:32;;;;;;;5.88;0.80;;;;;;;14.66;40.52;92759.09;4959490;28;20034;-76
2020/12/29 06:49:17;;;;;;;4.53;0.80;;;;;;;14.71;40.07;92777.44;4948855;28;20066;-75
2020/12/29 06:51:43;;;;;;;3.45;0.68;;;;;;;14.75;39.88;92804.94;4953881;28;20607;-75
2020/12/29 06:54:08;;;;;;;2.60;0.70;;;;;;;14.82;40.35;92814.97;4954257;28;20143;-74
2020/12/29 06:56:53;;;;;;;3.35;0.68;;;;;;;14.65;40.25;92805.41;4953415;28;20570;-74
2020/12/29 06:59:21;;;;;;;0.73;0.60;;;;;;;14.62;40.67;92788.22;4953895;28;20035;-74
2020/12/29 07:01:49;;;;;;;1.38;0.70;;;;;;;14.70;40.05;92810.47;4940051;28;20030;-75
2020/12/29 07:04:14;;;;;;;2.17;0.65;;;;;;;14.62;40.09;92832.66;4954555;28;20085;-74
2020/12/29 07:06:40;;;;;;;3.63;0.60;;;;;;;14.71;40.30;92815.44;4935164;28;20491;-75
2020/12/29 07:09:15;;;;;;;2.72;1.20;;;;;;;14.80;40.06;92820.66;4952172;28;20039;-75
2020/12/29 07:12:09;;;;;;;2.90;1.20;;;;;;;14.93;39.97;92827.47;4936445;28;20043;-75
2020/12/29 07:14:35;;;;;;;0.77;0.77;;;;;;;15.03;40.14;92848.25;4940129;28;20050;-76
2020/12/29 07:17:05;;;;;;;2.08;0.80;;;;;;;14.98;40.36;92816.59;4951720;28;20047;-75
2020/12/29 07:19:31;;;;;;;1.13;0.60;;;;;;;15.01;40.20;92826.53;4957260;28;20418;-75
2020/12/29 07:21:57;;;;;;;7.45;1.00;;;;;;;15.05;40.28;92798.13;4953148;28;20504;-75
2020/12/29 07:24:27;;;;;;;4.15;2.20;;;;;;;15.15;40.44;92826.91;4955228;28;20367;-75
2020/12/29 07:26:57;;;;;;;1.30;0.60;;;;;;;15.21;39.93;92832.00;4953704;28;20606;-75
2020/12/29 07:29:22;;;;;;;1.98;0.63;;;;;;;15.07;40.31;92833.16;4941494;28;20607;-75
2020/12/29 07:31:48;;;;;;;0.80;0.80;;;;;;;15.21;39.70;92834.66;4954581;28;20034;-75
2020/12/29 07:34:14;;;;;;;1.00;0.60;;;;;;;15.17;39.84;92840.66;4960647;28;20165;-75
2020/12/29 07:36:46;;;;;;;4.20;0.70;;;;;;;15.24;39.72;92847.31;4955004;28;20128;-74
2020/12/29 07:39:14;;;;;;;1.00;0.60;;;;;;;15.34;40.19;92857.47;4957465;28;20055;-75
2020/12/29 07:41:40;;;;;;;1.30;0.85;;;;;;;15.18;39.94;92860.84;4952346;28;20054;-74
2020/12/29 07:44:06;;;;;;;3.00;0.70;;;;;;;15.43;39.76;92871.38;4955285;28;21128;-74
2020/12/29 07:46:32;;;;;;;1.02;0.65;;;;;;;15.59;39.59;92902.25;4958758;28;20046;-74
2020/12/29 07:48:59;;;;;;;3.25;1.00;;;;;;;15.78;39.43;92875.00;4937421;28;20039;-75
2020/12/29 07:51:25;;;;;;;1.27;0.60;;;;;;;15.82;39.28;92891.06;4957898;28;20503;-75
2020/12/29 07:53:51;;;;;;;2.38;0.68;;;;;;;15.79;39.20;92889.84;4957048;28;20125;-75
2020/12/29 07:56:17;;;;;;;4.32;2.58;;;;;;;15.90;39.19;92885.56;4956623;28;20053;-75
2020/12/29 07:58:43;;;;;;;1.35;0.65;;;;;;;15.69;39.04;92895.66;4955153;28;20113;-75
2020/12/29 08:01:08;;;;;;;1.00;0.70;;;;;;;15.92;39.43;92893.22;4955570;28;20514;-74
2020/12/29 08:03:34;;;;;;;3.08;1.42;;;;;;;16.09;39.07;92897.41;4958465;28;20043;-74
2020/12/29 08:05:59;;;;;;;3.85;1.40;;;;;;;15.83;38.86;92901.34;4957561;28;20042;-75
2020/12/29 08:08:24;;;;;;;1.50;1.13;;;;;;;15.89;39.00;92904.53;4957004;28;20047;-74
2020/12/29 08:10:50;;;;;;;1.35;1.08;;;;;;;15.82;39.07;92899.06;4956294;28;20026;-75
2020/12/29 08:13:22;;;;;;;4.15;0.90;;;;;;;15.90;39.04;92928.19;4958533;28;20070;-74
2020/12/29 08:15:52;;;;;;;8.23;2.17;;;;;;;16.10;40.09;92920.28;4939259;28;20063;-75
2020/12/29 08:18:21;;;;;;;4.03;2.25;;;;;;;16.26;39.29;92918.41;4956403;28;20073;-75
2020/12/29 08:20:56;;;;;;;9.27;2.45;;;;;;;16.44;38.41;92935.59;4933331;28;20046;-76
2020/12/29 08:23:24;;;;;;;2.58;1.23;;;;;;;16.57;38.15;92926.38;4938101;28;20117;-75
2020/12/29 08:25:51;;;;;;;3.10;1.67;;;;;;;16.68;38.13;92948.00;4939167;28;20424;-75
2020/12/29 08:28:17;;;;;;;1.05;0.57;;;;;;;16.60;37.99;92939.06;4962036;28;20023;-75
2020/12/29 08:30:43;;;;;;;2.25;1.08;;;;;;;16.59;38.01;92942.84;4938277;28;20173;-75
2020/12/29 08:33:12;;;;;;;4.28;1.73;;;;;;;16.78;38.56;92945.56;4952538;28;20506;-76
2020/12/29 08:35:44;;;;;;;2.33;0.80;;;;;;;16.75;37.86;92956.94;4950345;28;22038;-75
2020/12/29 08:38:31;;;;;;;2.35;0.95;;;;;;;16.73;37.80;92969.84;4957631;28;20038;-75
2020/12/29 08:41:08;;;;;;;5.38;1.38;;;;;;;16.63;37.99;92954.38;4952957;28;20027;-74
2020/12/29 08:43:50;;;;;;;2.20;0.88;;;;;;;16.72;38.15;92930.16;4958237;28;20058;-75
2020/12/29 08:46:18;;;;;;;1.05;0.70;;;;;;;16.77;37.90;92956.59;4957137;28;20051;-76
2020/12/29 08:48:59;;;;;;;2.88;1.35;;;;;;;16.86;38.11;92978.50;4953744;28;20197;-75
2020/12/29 08:51:30;;;;;;;2.55;1.60;;;;;;;16.76;38.07;92952.38;4947932;28;20141;-75
2020/12/29 08:54:19;;;;;;;2.80;1.15;;;;;;;16.54;37.80;92988.41;4943330;28;20049;-74
2020/12/29 08:56:46;;;;;;;8.65;2.47;;;;;;;16.45;38.70;92974.50;4951085;28;20684;-75
2020/12/29 08:59:22;;;;;;;1.27;0.95;;;;;;;16.57;38.18;92939.72;4955507;28;20043;-74
2020/12/29 09:01:59;;;;;;;1.13;0.70;;;;;;;16.83;38.50;92961.31;4955700;28;20035;-74
2020/12/29 09:04:43;;;;;;;3.90;1.38;;;;;;;16.95;38.06;92965.78;4933134;28;20034;-75
2020/12/29 09:07:15;;;;;;;2.47;1.17;;;;;;;16.94;37.72;92945.53;4952508;28;20042;-75
2020/12/29 09:09:50;;;;;;;1.73;0.70;;;;;;;17.09;37.86;92962.66;4951380;28;20052;-75
2020/12/29 09:12:20;;;;;;;4.18;1.05;;;;;;;17.24;37.82;92959.16;4954390;28;20058;-74
2020/12/29 09:15:07;;;;;;;3.05;0.93;;;;;;;17.23;38.36;92976.28;4952832;28;20039;-74
2020/12/29 09:17:44;;;;;;;2.63;1.10;;;;;;;17.24;37.43;92957.25;4950912;28;20205;-74
2020/12/29 09:20:09;;;;;;;0.95;0.70;;;;;;;17.33;37.99;92986.44;4952839;28;20758;-73
2020/12/29 09:22:56;;;;;;;3.47;0.82;;;;;;;17.28;37.73;92968.00;4938881;28;20118;-74
2020/12/29 09:25:27;;;;;;;1.42;0.70;;;;;;;17.31;37.58;92972.63;4941449;28;20092;-77
2020/12/29 09:28:26;;;;;;;1.65;0.70;;;;;;;17.38;37.97;92972.81;4951736;28;20050;-74
2020/12/29 09:31:07;;;;;;;2.28;0.70;;;;;;;17.53;37.10;92980.00;4936710;28;20074;-74
2020/12/29 09:33:34;;;;;;;0.85;0.80;;;;;;;17.44;37.55;92958.06;4942770;28;20563;-74
2020/12/29 09:36:03;;;;;;;2.83;0.60;;;;;;;17.59;37.44;92977.84;4952586;28;20858;-73
2020/12/29 09:38:30;;;;;;;3.60;0.60;;;;;;;17.45;37.28;92962.25;4951672;28;20035;-74
2020/12/29 09:40:56;;;;;;;0.68;0.60;;;;;;;17.62;37.13;92953.88;4949901;28;20031;-73
2020/12/29 09:43:22;;;;;;;3.60;1.20;;;;;;;17.82;37.26;92948.50;4952733;28;20065;-75
2020/12/29 09:45:48;;;;;;;1.15;0.60;;;;;;;17.90;36.54;92939.47;4953186;28;20043;-74
2020/12/29 09:48:14;;;;;;;2.63;1.00;;;;;;;18.07;36.31;92939.03;4953109;28;20524;-74
2020/12/29 09:50:40;;;;;;;1.55;0.73;;;;;;;18.03;36.37;92932.84;4934953;28;21077;-74
2020/12/29 09:53:06;;;;;;;2.53;0.80;;;;;;;17.93;36.23;92949.47;4951094;28;20057;-74
2020/12/29 09:55:32;;;;;;;4.05;0.60;;;;;;;18.03;36.37;92946.22;4952266;28;20428;-74
2020/12/29 09:57:57;;;;;;;2.85;0.88;;;;;;;18.10;36.18;92952.47;4950092;28;20124;-74
2020/12/29 10:00:23;;;;;;;2.75;0.80;;;;;;;18.03;36.28;92954.25;4950214;28;20031;-73
2020/12/29 10:02:49;;;;;;;1.63;0.68;;;;;;;17.84;36.43;92979.06;4950804;28;20486;-74
2020/12/29 10:05:15;;;;;;;1.63;0.70;;;;;;;17.96;35.69;92965.56;4935100;28;20522;-74
2020/12/29 10:07:44;;;;;;;3.30;0.80;;;;;;;17.94;36.09;92967.03;4941729;28;20023;-74
2020/12/29 10:10:10;;;;;;;4.32;1.25;;;;;;;18.04;35.80;92964.56;4935007;28;20070;-74
2020/12/29 10:12:35;;;;;;;1.13;0.80;;;;;;;18.16;35.96;92980.47;4952805;28;20126;-74
2020/12/29 10:15:01;;;;;;;2.35;0.90;;;;;;;18.14;35.21;92974.69;4955759;28;20280;-73
2020/12/29 10:17:26;;;;;;;3.00;1.02;;;;;;;18.04;35.23;92977.16;4954183;28;20149;-74
2020/12/29 10:19:52;;;;;;;1.65;0.60;;;;;;;18.21;36.22;92971.38;4952857;28;20053;-73
2020/12/29 10:22:17;;;;;;;3.50;1.30;;;;;;;18.31;36.33;92964.66;4952387;28;20022;-74
2020/12/29 10:24:43;;;;;;;1.33;0.80;;;;;;;18.32;35.98;92975.00;4954050;28;20288;-74
2020/12/29 10:27:08;;;;;;;3.22;1.67;;;;;;;18.41;35.68;92962.16;4954415;28;20086;-74
2020/12/29 10:29:34;;;;;;;3.22;0.70;;;;;;;18.45;35.08;92962.22;4952044;28;20841;-74
2020/12/29 10:31:59;;;;;;;3.17;1.20;;;;;;;18.49;34.98;92963.81;4949977;28;20018;-77
2020/12/29 10:34:25;;;;;;;2.67;0.70;;;;;;;18.57;35.23;92973.53;4934759;28;20496;-77
2020/12/29 10:36:51;;;;;;;1.92;0.70;;;;;;;18.52;34.79;92965.78;4954483;28;20049;-74
2020/12/29 10:39:16;;;;;;;1.55;0.73;;;;;;;18.70;34.96;92970.69;4954775;28;20043;-74
2020/12/29 10:41:41;;;;;;;1.65;0.60;;;;;;;18.82;34.26;92968.56;4951719;28;20043;-73
2020/12/29 10:44:08;;;;;;;1.67;0.75;;;;;;;18.67;33.77;92966.06;4951151;28;20035;-74
2020/12/29 10:46:34;;;;;;;3.25;0.68;;;;;;;18.58;34.93;92945.66;4953902;28;20062;-74
2020/12/29 10:48:59;;;;;;;0.75;0.60;;;;;;;18.65;33.92;92955.69;4950953;28;20122;-74
2020/12/29 10:51:26;;;;;;;1.45;0.75;;;;;;;18.96;33.94;92946.63;4950889;28;20066;-74
2020/12/29 10:53:53;;;;;;;1.15;0.70;;;;;;;19.26;33.28;92968.81;4955176;28;20046;-75
2020/12/29 10:56:19;;;;;;;4.25;0.90;;;;;;;19.40;33.01;92950.25;4927344;28;20197;-74
2020/12/29 10:58:44;;;;;;;1.52;0.60;;;;;;;19.43;33.18;92954.91;4941897;28;20022;-74
2020/12/29 11:01:11;;;;;;;0.88;0.63;;;;;;;19.24;32.56;92968.44;4953059;28;20080;-74
2020/12/29 11:03:37;;;;;;;0.57;0.50;;;;;;;19.12;33.13;92965.94;4956880;28;20060;-74
2020/12/29 11:06:03;;;;;;;2.35;0.90;;;;;;;19.15;32.95;92953.75;4956587;28;20038;-74
2020/12/29 11:08:29;;;;;;;4.70;0.70;;;;;;;19.21;33.66;92945.03;4958605;28;20039;-73
2020/12/29 11:10:55;;;;;;;1.52;0.63;;;;;;;19.10;33.29;92954.84;4956811;28;20039;-74
2020/12/29 11:13:21;;;;;;;0.88;0.63;;;;;;;19.18;33.29;92961.84;4958241;28;20193;-74
2020/12/29 11:15:53;;;;;;;2.00;0.98;;;;;;;18.85;32.88;92921.59;4956907;28;20043;-73
2020/12/29 11:18:18;;;;;;;1.40;0.70;;;;;;;18.87;34.10;92946.06;4958121;28;20085;-74
2020/12/29 11:20:44;;;;;;;3.47;0.80;;;;;;;18.72;33.87;92947.78;4955742;28;20043;-73
2020/12/29 11:23:10;;;;;;;4.45;0.80;;;;;;;18.84;34.00;92944.13;4956507;28;20130;-77
2020/12/29 11:25:35;;;;;;;2.03;0.70;;;;;;;18.95;33.88;92950.41;4962849;28;20395;-76
2020/12/29 11:28:01;;;;;;;1.75;0.85;;;;;;;19.01;33.41;92936.34;4956576;28;20157;-74
2020/12/29 11:30:26;;;;;;;3.95;0.70;;;;;;;18.94;33.86;92943.50;4955448;28;20042;-75
2020/12/29 11:32:52;;;;;;;1.75;0.85;;;;;;;18.88;33.59;92945.72;4957705;28;20038;-76
2020/12/29 11:35:17;;;;;;;0.90;0.80;;;;;;;18.85;33.22;92940.31;4956192;28;20058;-73